sensor_id;sensor_type;location;lat;lon;timestamp;pressure;altitude;pressure_sealevel;temperature;humidity
70072;BME280;57434;42.794;23.302;2023-07-09T03:08:51;96099.94;;;13.28;nan
70072;BME280;57434;42.794;23.302;2023-07-09T10:38:20;96011.53;;;28.50;nan
70072;BME280;57434;42.794;23.302;2023-07-09T10:40:46;96005.97;;;29.50;nan
70072;BME280;57434;42.794;23.302;2023-07-09T10:45:13;95994.03;;;28.57;nan
70072;BME280;57434;42.794;23.302;2023-07-09T10:47:39;95999.19;;;28.59;nan
70072;BME280;57434;42.794;23.302;2023-07-09T10:48:54;95993.75;;;28.63;nan
70072;BME280;57434;42.794;23.302;2023-07-09T10:49:59;95993.00;;;28.72;nan
70072;BME280;57434;42.794;23.302;2023-07-09T10:51:03;95980.31;;;28.39;nan
70072;BME280;57434;42.794;23.302;2023-07-09T10:52:34;96007.56;;;28.84;nan
70072;BME280;57434;42.794;23.302;2023-07-09T10:55:20;95997.22;;;29.19;nan
70072;BME280;57434;42.794;23.302;2023-07-09T10:57:48;95971.97;;;29.70;nan
70072;BME280;57434;42.794;23.302;2023-07-09T10:59:30;96003.59;;;29.27;nan
70072;BME280;57434;42.794;23.302;2023-07-09T11:00:38;95939.66;;;28.63;nan
70072;BME280;57434;42.794;23.302;2023-07-09T11:01:43;96002.22;;;29.28;nan
70072;BME280;57434;42.794;23.302;2023-07-09T11:03:02;95982.16;;;29.21;nan
70072;BME280;57434;42.794;23.302;2023-07-09T11:04:20;95907.38;;;28.86;nan
70072;BME280;57434;42.794;23.302;2023-07-09T11:05:26;95990.28;;;29.63;nan
70072;BME280;57434;42.794;23.302;2023-07-09T11:06:45;95889.31;;;29.05;nan
70072;BME280;57434;42.794;23.302;2023-07-09T11:08:14;95996.69;;;29.61;nan
70072;BME280;57434;42.794;23.302;2023-07-09T11:10:39;95985.25;;;29.94;nan
70072;BME280;57434;42.794;23.302;2023-07-09T11:11:47;95996.50;;;30.00;nan
70072;BME280;57434;42.794;23.302;2023-07-09T11:15:35;95989.47;;;29.22;nan
70072;BME280;57434;42.794;23.302;2023-07-09T11:16:40;95946.94;;;28.74;nan
70072;BME280;57434;42.794;23.302;2023-07-09T11:17:45;96011.53;;;29.77;nan
70072;BME280;57434;42.794;23.302;2023-07-09T11:19:00;95996.22;;;29.96;nan
70072;BME280;57434;42.794;23.302;2023-07-09T11:20:16;95993.13;;;29.73;nan
70072;BME280;57434;42.794;23.302;2023-07-09T11:22:27;95920.09;;;29.22;nan
70072;BME280;57434;42.794;23.302;2023-07-09T11:23:49;95994.69;;;29.54;nan
70072;BME280;57434;42.794;23.302;2023-07-09T11:25:04;95997.66;;;29.85;nan
70072;BME280;57434;42.794;23.302;2023-07-09T14:02:31;95944.00;;;29.13;nan
70072;BME280;57434;42.794;23.302;2023-07-09T14:04:36;95824.78;;;29.12;nan
70072;BME280;57434;42.794;23.302;2023-07-09T14:06:41;95943.91;;;29.82;nan
70072;BME280;57434;42.794;23.302;2023-07-09T14:08:45;95970.84;;;29.44;nan
70072;BME280;57434;42.794;23.302;2023-07-09T16:50:38;95864.34;;;24.70;nan
70072;BME280;57434;42.794;23.302;2023-07-09T21:10:44;96127.53;;;18.72;nan
70072;BME280;57434;42.794;23.302;2023-07-09T21:27:33;96153.56;;;18.57;nan
70072;BME280;57434;42.794;23.302;2023-07-09T21:28:35;96118.66;;;18.13;nan
70072;BME280;57434;42.794;23.302;2023-07-09T21:30:39;96144.69;;;18.66;nan
70072;BME280;57434;42.794;23.302;2023-07-09T21:31:42;96071.75;;;18.25;nan
70072;BME280;57434;42.794;23.302;2023-07-09T21:35:51;96142.69;;;18.80;nan
70072;BME280;57434;42.794;23.302;2023-07-09T21:37:56;96149.19;;;18.56;nan
70072;BME280;57434;42.794;23.302;2023-07-09T21:38:58;96069.50;;;18.18;nan
70072;BME280;57434;42.794;23.302;2023-07-09T21:40:00;96136.03;;;18.53;nan
70072;BME280;57434;42.794;23.302;2023-07-09T22:07:39;96099.06;;;16.73;nan
70072;BME280;57434;42.794;23.302;2023-07-09T22:11:47;96116.06;;;16.73;nan
70072;BME280;57434;42.794;23.302;2023-07-09T22:13:51;96148.59;;;17.08;nan
70072;BME280;57434;42.794;23.302;2023-07-09T22:16:58;96052.97;;;15.98;nan
70072;BME280;57434;42.794;23.302;2023-07-09T22:21:09;96155.47;;;16.77;nan
70072;BME280;57434;42.794;23.302;2023-07-09T22:23:22;96148.47;;;16.83;nan
70072;BME280;57434;42.794;23.302;2023-07-09T22:24:25;96154.34;;;16.91;nan
70072;BME280;57434;42.794;23.302;2023-07-09T22:27:33;96123.19;;;16.85;nan
70072;BME280;57434;42.794;23.302;2023-07-09T22:28:34;96046.03;;;16.05;nan
70072;BME280;57434;42.794;23.302;2023-07-09T22:29:37;96139.28;;;16.55;nan
70072;BME280;57434;42.794;23.302;2023-07-09T22:31:42;96114.81;;;16.57;nan
70072;BME280;57434;42.794;23.302;2023-07-09T22:32:53;96148.72;;;16.85;nan
70072;BME280;57434;42.794;23.302;2023-07-09T22:35:02;96140.03;;;17.19;nan
70072;BME280;57434;42.794;23.302;2023-07-09T22:36:04;96141.34;;;17.12;nan
70072;BME280;57434;42.794;23.302;2023-07-09T22:37:15;96140.81;;;17.14;nan
70072;BME280;57434;42.794;23.302;2023-07-09T22:38:22;96025.66;;;16.17;nan
